createdAt,value
2017-10-23T00:02:14.486Z,7.10
2017-10-23T00:04:42.658Z,7.00
2017-10-23T00:07:10.839Z,7.00
2017-10-23T00:09:39.013Z,7.00
2017-10-23T00:12:07.187Z,7.10
2017-10-23T00:14:35.358Z,7.10
2017-10-23T00:17:03.539Z,7.10
2017-10-23T00:19:31.715Z,7.10
2017-10-23T00:21:59.896Z,7.20
2017-10-23T00:24:27.306Z,7.10
2017-10-23T00:26:54.717Z,7.20
2017-10-23T00:29:22.118Z,7.20
2017-10-23T00:31:49.534Z,7.20
2017-10-23T00:34:16.938Z,7.20
2017-10-23T00:36:44.353Z,7.20
2017-10-23T00:39:11.762Z,7.20
2017-10-23T00:41:39.949Z,7.10
2017-10-23T00:44:08.122Z,7.10
2017-10-23T00:46:36.285Z,7.00
2017-10-23T00:49:04.451Z,7.00
2017-10-23T00:51:31.857Z,7.00
2017-10-23T00:53:59.267Z,7.00
2017-10-23T00:56:27.429Z,7.00
2017-10-23T00:58:54.843Z,7.00
2017-10-23T01:01:22.258Z,7.00
2017-10-23T01:03:49.651Z,7.00
2017-10-23T01:06:17.050Z,6.90
2017-10-23T01:08:44.466Z,6.90
2017-10-23T01:11:11.879Z,6.90
2017-10-23T01:13:39.287Z,6.80
2017-10-23T01:16:06.702Z,6.80
2017-10-23T01:18:34.886Z,6.90
2017-10-23T01:21:02.289Z,6.80
2017-10-23T01:23:29.694Z,6.90
2017-10-23T01:25:57.098Z,6.80
2017-10-23T01:28:24.505Z,6.80
2017-10-23T01:30:51.909Z,6.80
2017-10-23T01:33:19.317Z,6.80
2017-10-23T01:35:46.723Z,6.80
2017-10-23T01:38:14.139Z,6.80
2017-10-23T01:40:41.543Z,6.80
2017-10-23T01:43:08.960Z,6.80
2017-10-23T01:45:36.361Z,6.80
2017-10-23T01:48:03.778Z,6.90
2017-10-23T01:50:31.197Z,6.90
2017-10-23T01:52:59.379Z,6.90
2017-10-23T01:55:26.784Z,6.90
2017-10-23T01:57:54.387Z,6.90
2017-10-23T02:00:21.787Z,6.90
2017-10-23T02:02:49.192Z,6.90
2017-10-23T02:05:17.382Z,6.90
2017-10-23T02:07:45.546Z,6.90
2017-10-23T02:10:13.725Z,6.80
2017-10-23T02:12:41.901Z,6.90
2017-10-23T02:15:10.075Z,6.90
2017-10-23T02:17:38.241Z,7.00
2017-10-23T02:20:06.422Z,7.10
2017-10-23T02:22:34.590Z,7.10
2017-10-23T02:25:02.775Z,7.20
2017-10-23T02:27:30.174Z,7.10
2017-10-23T02:29:57.589Z,7.20
2017-10-23T02:32:24.998Z,7.20
2017-10-23T02:34:52.418Z,7.20
2017-10-23T02:37:19.827Z,7.30
2017-10-23T02:39:47.228Z,7.30
2017-10-23T02:42:14.630Z,7.30
2017-10-23T02:44:42.045Z,7.30
2017-10-23T02:47:09.457Z,7.30
2017-10-23T02:49:36.856Z,7.30
2017-10-23T02:52:04.261Z,7.30
2017-10-23T02:54:31.673Z,7.30
2017-10-23T02:56:59.077Z,7.30
2017-10-23T02:59:27.270Z,7.40
2017-10-23T03:01:54.670Z,7.40
2017-10-23T03:04:22.086Z,7.40
2017-10-23T03:06:49.506Z,7.50
2017-10-23T03:09:16.920Z,7.50
2017-10-23T03:11:44.322Z,7.50
2017-10-23T03:14:11.729Z,7.50
2017-10-23T03:16:39.130Z,7.50
2017-10-23T03:19:06.545Z,7.60
2017-10-23T03:21:33.951Z,7.60
2017-10-23T03:24:01.369Z,7.50
2017-10-23T03:26:28.774Z,7.60
2017-10-23T03:28:56.965Z,7.50
2017-10-23T03:31:24.361Z,7.50
2017-10-23T03:33:51.792Z,7.50
2017-10-23T03:36:19.199Z,7.60
2017-10-23T03:38:46.609Z,7.60
2017-10-23T03:41:14.017Z,7.60
2017-10-23T03:43:41.420Z,7.70
2017-10-23T03:46:08.831Z,7.70
2017-10-23T03:48:36.995Z,7.70
2017-10-23T03:51:04.418Z,7.70
2017-10-23T03:53:31.835Z,7.60
2017-10-23T03:55:59.250Z,7.70
2017-10-23T03:58:26.657Z,7.60
2017-10-23T04:00:54.073Z,7.70
2017-10-23T04:03:21.481Z,7.70
2017-10-23T04:05:48.890Z,7.70
2017-10-23T04:08:16.299Z,7.70
2017-10-23T04:10:43.705Z,7.70
2017-10-23T04:13:11.873Z,7.70
2017-10-23T04:15:39.282Z,7.70
2017-10-23T04:18:06.685Z,7.70
2017-10-23T04:20:34.108Z,7.70
2017-10-23T04:23:01.507Z,7.70
2017-10-23T04:25:29.689Z,7.60
2017-10-23T04:27:57.873Z,7.60
2017-10-23T04:30:25.280Z,7.60
2017-10-23T04:32:52.686Z,7.60
2017-10-23T04:35:20.098Z,7.70
2017-10-23T04:37:47.516Z,7.70
2017-10-23T04:40:14.926Z,7.70
2017-10-23T04:42:43.118Z,7.70
2017-10-23T04:45:11.342Z,7.70
2017-10-23T04:47:38.805Z,7.70
2017-10-23T04:50:06.204Z,7.70
2017-10-23T04:52:34.379Z,7.80
2017-10-23T04:55:02.562Z,7.80
2017-10-23T04:57:29.963Z,7.80
2017-10-23T04:59:57.383Z,7.80
2017-10-23T05:02:24.799Z,7.80
2017-10-23T05:04:52.214Z,7.80
2017-10-23T05:13:11.238Z,7.90
2017-10-23T05:15:38.649Z,7.90
2017-10-23T05:18:06.071Z,7.90
2017-10-23T05:20:33.477Z,7.90
2017-10-23T05:23:00.881Z,8.00
2017-10-23T05:25:28.300Z,8.00
2017-10-23T05:27:55.702Z,8.00
2017-10-23T05:30:24.004Z,7.90
2017-10-23T05:35:53.969Z,7.90
2017-10-23T05:38:21.370Z,7.90
2017-10-23T05:40:49.551Z,8.00
2017-10-23T05:43:17.730Z,8.00
2017-10-23T05:45:45.137Z,8.00
2017-10-23T05:48:12.544Z,8.00
2017-10-23T05:50:40.714Z,8.00
2017-10-23T05:53:08.886Z,8.10
2017-10-23T05:55:37.079Z,8.00
2017-10-23T05:58:04.474Z,8.00
2017-10-23T06:00:31.882Z,8.00
2017-10-23T06:02:59.298Z,8.00
2017-10-23T06:05:26.699Z,7.90
2017-10-23T06:07:54.810Z,8.00
2017-10-23T06:10:23.098Z,8.00
2017-10-23T06:12:50.522Z,8.10
2017-10-23T06:15:17.934Z,8.00
2017-10-23T06:17:46.115Z,8.10
2017-10-23T06:20:14.281Z,8.10
2017-10-23T06:22:42.458Z,8.10
2017-10-23T06:25:10.631Z,8.10
2017-10-23T06:27:38.050Z,8.00
2017-10-23T06:30:05.459Z,8.00
2017-10-23T06:32:32.879Z,8.00
2017-10-23T06:35:00.285Z,8.00
2017-10-23T06:37:34.614Z,8.10
2017-10-23T06:40:02.022Z,8.10
2017-10-23T06:42:30.205Z,8.10
2017-10-23T06:44:58.374Z,8.30
2017-10-23T06:47:26.558Z,8.30
2017-10-23T06:49:54.738Z,8.40
2017-10-23T06:52:22.154Z,8.40
2017-10-23T06:54:49.553Z,8.50
2017-10-23T06:57:16.966Z,8.50
2017-10-23T06:59:44.384Z,8.50
2017-10-23T07:02:11.790Z,8.50
2017-10-23T07:04:39.199Z,8.50
2017-10-23T07:07:06.605Z,8.50
2017-10-23T07:09:34.018Z,8.50
2017-10-23T07:12:01.425Z,8.60
2017-10-23T07:14:29.599Z,8.60
2017-10-23T07:16:57.774Z,8.70
2017-10-23T07:19:25.951Z,8.80
2017-10-23T07:21:54.125Z,8.80
2017-10-23T07:24:22.294Z,8.70
2017-10-23T07:26:50.470Z,8.80
2017-10-23T07:29:18.637Z,8.90
2017-10-23T07:31:46.824Z,9.00
2017-10-23T07:34:14.989Z,9.00
2017-10-23T07:36:43.150Z,9.00
2017-10-23T07:39:10.566Z,9.00
2017-10-23T07:41:37.970Z,8.90
2017-10-23T07:44:06.164Z,9.00
2017-10-23T07:46:33.573Z,8.90
2017-10-23T07:49:00.978Z,9.10
2017-10-23T07:51:28.383Z,9.30
2017-10-23T07:53:55.793Z,9.30
2017-10-23T07:56:23.207Z,9.40
2017-10-23T07:58:50.620Z,9.40
2017-10-23T08:01:18.030Z,9.40
2017-10-23T08:03:45.442Z,9.40
2017-10-23T08:06:12.854Z,9.30
2017-10-23T08:08:41.038Z,9.40
2017-10-23T08:11:08.458Z,9.40
2017-10-23T08:13:35.859Z,9.50
2017-10-23T08:16:03.271Z,9.60
2017-10-23T08:18:30.686Z,9.60
2017-10-23T08:20:58.098Z,9.60
2017-10-23T08:23:25.514Z,9.60
2017-10-23T08:25:53.690Z,9.60
2017-10-23T08:28:21.110Z,9.60
2017-10-23T08:30:48.529Z,9.70
2017-10-23T08:33:15.955Z,9.70
2017-10-23T08:35:43.359Z,9.70
2017-10-23T08:38:11.530Z,9.80
2017-10-23T08:40:39.711Z,9.90
2017-10-23T08:43:07.894Z,9.90
2017-10-23T08:45:35.299Z,9.90
2017-10-23T08:48:02.715Z,9.90
2017-10-23T08:50:30.128Z,9.80
2017-10-23T08:52:57.545Z,9.80
2017-10-23T08:55:24.946Z,9.90
2017-10-23T08:57:52.361Z,10.10
2017-10-23T09:00:19.770Z,10.10
2017-10-23T09:02:47.951Z,10.30
2017-10-23T09:05:16.135Z,10.30
2017-10-23T09:07:43.562Z,10.30
2017-10-23T09:10:10.978Z,10.40
2017-10-23T09:12:38.393Z,10.40
2017-10-23T09:15:06.578Z,10.10
2017-10-23T09:17:33.994Z,10.00
2017-10-23T09:20:01.418Z,10.10
2017-10-23T09:22:28.834Z,10.10
2017-10-23T09:24:57.036Z,10.30
2017-10-23T09:27:24.442Z,10.30
2017-10-23T09:29:51.865Z,10.60
2017-10-23T09:32:19.269Z,10.70
2017-10-23T09:34:47.464Z,11.00
2017-10-23T09:37:14.878Z,11.00
2017-10-23T09:39:43.054Z,11.00
2017-10-23T09:42:10.469Z,11.00
2017-10-23T09:44:37.874Z,10.90
2017-10-23T09:47:05.285Z,10.80
2017-10-23T09:49:32.712Z,10.80
2017-10-23T09:52:00.894Z,11.00
2017-10-23T09:54:28.318Z,10.90
2017-10-23T09:56:55.729Z,11.00
2017-10-23T09:59:23.143Z,11.00
2017-10-23T10:01:51.332Z,11.30
2017-10-23T10:04:18.745Z,11.30
2017-10-23T10:06:46.164Z,11.50
2017-10-23T10:09:13.582Z,11.40
2017-10-23T10:11:41.762Z,11.30
2017-10-23T10:14:09.945Z,11.30
2017-10-23T10:16:37.353Z,11.30
2017-10-23T10:19:04.770Z,11.50
2017-10-23T10:21:32.182Z,11.70
2017-10-23T10:23:59.624Z,11.80
2017-10-23T10:26:27.034Z,12.00
2017-10-23T10:28:54.449Z,12.00
2017-10-23T10:31:21.869Z,11.90
2017-10-23T10:33:49.270Z,11.90
2017-10-23T10:36:20.094Z,11.90
2017-10-23T10:38:47.514Z,12.00
2017-10-23T10:41:14.938Z,11.90
2017-10-23T10:43:43.134Z,11.90
2017-10-23T10:46:10.562Z,11.90
2017-10-23T10:48:38.742Z,12.20
2017-10-23T10:51:06.914Z,12.50
2017-10-23T10:53:35.094Z,12.30
2017-10-23T10:56:02.511Z,12.30
2017-10-23T10:58:29.922Z,12.30
2017-10-23T11:00:57.340Z,12.20
2017-10-23T11:03:24.749Z,11.90
2017-10-23T11:05:52.165Z,11.80
2017-10-23T11:08:19.586Z,11.70
2017-10-23T11:10:47.010Z,11.70
2017-10-23T11:13:14.419Z,11.70
2017-10-23T11:15:41.834Z,11.80
2017-10-23T11:18:09.238Z,11.80
2017-10-23T11:20:37.428Z,11.80
2017-10-23T11:23:04.855Z,11.70
2017-10-23T11:25:32.266Z,11.70
2017-10-23T11:27:59.689Z,11.70
2017-10-23T11:30:27.110Z,11.80
2017-10-23T11:32:54.535Z,11.90
2017-10-23T11:35:21.960Z,12.00
2017-10-23T11:37:50.143Z,11.90
2017-10-23T11:40:17.561Z,11.90
2017-10-23T11:42:44.986Z,12.10
2017-10-23T11:45:12.419Z,12.10
2017-10-23T11:47:39.838Z,12.20
2017-10-23T11:50:07.268Z,12.30
2017-10-23T11:52:34.689Z,12.40
2017-10-23T11:55:02.123Z,12.10
2017-10-23T11:57:30.315Z,12.10
2017-10-23T11:59:57.743Z,12.10
2017-10-23T12:02:25.166Z,12.20
2017-10-23T12:04:52.590Z,12.10
2017-10-23T12:07:20.007Z,12.10
2017-10-23T12:09:47.413Z,12.20
2017-10-23T12:12:14.849Z,12.10
2017-10-23T12:14:42.258Z,12.00
2017-10-23T12:17:09.681Z,11.90
2017-10-23T12:19:37.098Z,11.90
2017-10-23T12:22:05.290Z,11.90
2017-10-23T12:24:32.722Z,11.90
2017-10-23T12:27:00.142Z,11.90
2017-10-23T12:29:27.551Z,12.00
2017-10-23T12:31:54.967Z,12.10
2017-10-23T12:34:22.387Z,12.30
2017-10-23T12:36:49.797Z,12.40
2017-10-23T12:39:17.998Z,12.40
2017-10-23T12:41:51.042Z,12.40
2017-10-23T12:44:18.472Z,12.20
2017-10-23T12:46:46.655Z,12.20
2017-10-23T12:49:14.076Z,12.20
2017-10-23T12:51:41.493Z,12.10
2017-10-23T12:54:08.927Z,12.10
2017-10-23T12:56:36.346Z,11.90
2017-10-23T12:59:03.763Z,11.80
2017-10-23T13:01:31.186Z,11.70
2017-10-23T13:03:58.594Z,11.90
2017-10-23T13:06:26.779Z,12.00
2017-10-23T13:08:54.196Z,12.00
2017-10-23T13:11:21.618Z,11.90
2017-10-23T13:13:49.026Z,12.00
2017-10-23T13:16:17.220Z,11.90
2017-10-23T13:18:44.643Z,11.90
2017-10-23T13:21:12.097Z,11.80
2017-10-23T13:23:39.497Z,11.80
2017-10-23T13:26:06.919Z,11.80
2017-10-23T13:28:34.331Z,11.80
2017-10-23T13:31:01.750Z,11.70
2017-10-23T13:33:29.939Z,11.80
2017-10-23T13:35:57.354Z,11.70
2017-10-23T13:38:24.775Z,11.70
2017-10-23T13:40:52.197Z,11.60
2017-10-23T13:43:20.392Z,11.60
2017-10-23T13:45:47.810Z,11.60
2017-10-23T13:48:15.234Z,11.60
2017-10-23T13:50:42.646Z,11.60
2017-10-23T13:53:10.061Z,11.60
2017-10-23T13:55:37.480Z,11.60
2017-10-23T13:58:04.889Z,11.60
2017-10-23T14:00:33.070Z,11.60
2017-10-23T14:03:01.262Z,11.60
2017-10-23T14:05:28.672Z,11.60
2017-10-23T14:07:56.093Z,11.50
2017-10-23T14:10:23.950Z,11.40
2017-10-23T14:12:51.354Z,11.40
2017-10-23T14:15:18.779Z,11.30
2017-10-23T14:17:46.207Z,11.40
2017-10-23T14:20:13.621Z,11.30
2017-10-23T14:22:41.048Z,11.20
2017-10-23T14:25:08.470Z,11.20
2017-10-23T14:27:36.672Z,11.10
2017-10-23T14:30:04.343Z,11.10
2017-10-23T14:32:31.739Z,11.00
2017-10-23T14:34:59.161Z,11.10
2017-10-23T14:37:26.606Z,11.10
2017-10-23T14:39:54.026Z,11.20
2017-10-23T14:42:22.215Z,11.00
2017-10-23T14:44:49.635Z,11.00
2017-10-23T14:47:17.051Z,10.90
2017-10-23T14:49:44.474Z,11.00
2017-10-23T14:52:11.893Z,11.10
2017-10-23T14:54:39.326Z,11.20
2017-10-23T14:57:06.738Z,11.20
2017-10-23T14:59:34.168Z,11.10
2017-10-23T15:02:01.584Z,11.10
2017-10-23T15:04:28.990Z,11.20
2017-10-23T15:06:57.173Z,11.30
2017-10-23T15:09:25.374Z,11.30
2017-10-23T15:11:52.774Z,11.20
2017-10-23T15:14:20.200Z,11.20
2017-10-23T15:16:47.611Z,11.20
2017-10-23T15:19:15.798Z,11.20
2017-10-23T15:21:43.222Z,11.20
2017-10-23T15:24:10.645Z,11.10
2017-10-23T15:26:38.054Z,11.00
2017-10-23T15:29:06.246Z,11.00
2017-10-23T15:31:33.650Z,11.00
2017-10-23T15:34:01.078Z,11.00
2017-10-23T15:36:28.491Z,11.10
2017-10-23T15:38:55.910Z,11.10
2017-10-23T15:41:23.335Z,11.10
2017-10-23T15:43:50.749Z,11.10
2017-10-23T15:46:18.170Z,11.00
2017-10-23T15:48:45.587Z,11.10
2017-10-23T15:51:13.774Z,11.00
2017-10-23T15:53:41.194Z,11.10
2017-10-23T15:56:08.605Z,11.00
2017-10-23T15:58:36.022Z,11.00
2017-10-23T16:01:04.204Z,11.10
2017-10-23T16:03:32.398Z,10.90
2017-10-23T16:05:59.818Z,11.00
2017-10-23T16:08:27.238Z,10.90
2017-10-23T16:10:54.654Z,10.90
2017-10-23T16:13:22.066Z,10.90
2017-10-23T16:15:49.491Z,10.80
2017-10-23T16:18:17.027Z,10.90
2017-10-23T16:20:45.207Z,10.90
2017-10-23T16:23:12.735Z,10.90
2017-10-23T16:25:40.913Z,10.90
2017-10-23T16:28:09.095Z,10.90
2017-10-23T16:30:37.274Z,10.90
2017-10-23T16:33:05.454Z,10.80
2017-10-23T16:35:32.871Z,10.80
2017-10-23T16:38:00.329Z,10.80
2017-10-23T16:40:27.730Z,10.80
2017-10-23T16:42:55.142Z,10.80
2017-10-23T16:45:22.550Z,10.80
2017-10-23T16:47:49.961Z,10.80
2017-10-23T16:50:17.377Z,10.80
2017-10-23T16:52:44.787Z,10.80
2017-10-23T16:55:12.966Z,10.90
2017-10-23T16:57:41.243Z,10.90
2017-10-23T17:00:09.437Z,10.80
2017-10-23T17:02:36.842Z,10.80
2017-10-23T17:05:04.254Z,10.80
2017-10-23T17:07:31.668Z,10.80
2017-10-23T17:09:59.092Z,10.80
2017-10-23T17:12:26.555Z,10.80
2017-10-23T17:14:53.983Z,10.90
2017-10-23T17:17:21.386Z,11.00
2017-10-23T17:19:48.818Z,11.00
2017-10-23T17:22:16.996Z,10.90
2017-10-23T17:24:44.526Z,10.90
2017-10-23T17:27:12.018Z,10.90
2017-10-23T17:29:39.446Z,11.00
2017-10-23T17:32:07.619Z,11.00
2017-10-23T17:34:35.041Z,11.00
2017-10-23T17:37:03.251Z,11.10
2017-10-23T17:39:30.645Z,11.00
2017-10-23T17:41:58.061Z,11.00
2017-10-23T17:44:25.477Z,11.00
2017-10-23T17:46:53.663Z,11.10
2017-10-23T17:49:21.838Z,11.10
2017-10-23T17:51:49.249Z,11.10
2017-10-23T17:54:17.466Z,11.10
2017-10-23T17:56:45.649Z,11.00
2017-10-23T17:59:13.070Z,11.00
2017-10-23T18:01:40.482Z,11.00
2017-10-23T18:04:07.899Z,11.00
2017-10-23T18:06:36.083Z,11.10
2017-10-23T18:09:04.261Z,11.10
2017-10-23T18:11:31.693Z,11.10
2017-10-23T18:13:59.870Z,11.10
2017-10-23T18:16:28.054Z,11.10
2017-10-23T18:18:56.246Z,11.10
2017-10-23T18:21:23.684Z,11.10
2017-10-23T18:23:51.086Z,11.00
2017-10-23T18:26:18.502Z,11.00
2017-10-23T18:28:45.923Z,11.10
2017-10-23T18:31:13.344Z,11.10
2017-10-23T18:33:40.749Z,11.10
2017-10-23T18:36:08.172Z,11.00
2017-10-23T18:38:35.582Z,11.00
2017-10-23T18:41:03.015Z,11.00
2017-10-23T18:43:30.413Z,11.00
2017-10-23T18:45:57.822Z,11.00
2017-10-23T18:48:25.239Z,11.00
2017-10-23T18:50:52.650Z,11.00
2017-10-23T18:53:20.073Z,11.00
2017-10-23T18:55:47.505Z,10.90
2017-10-23T18:58:14.930Z,11.00
2017-10-23T19:00:42.363Z,11.00
2017-10-23T19:03:09.774Z,11.10
2017-10-23T19:05:37.203Z,11.20
2017-10-23T19:08:04.613Z,11.20
2017-10-23T19:10:32.065Z,11.00
2017-10-23T19:12:59.484Z,11.00
2017-10-23T19:15:26.912Z,11.00
2017-10-23T19:17:54.333Z,10.90
2017-10-23T19:20:21.754Z,11.00
2017-10-23T19:22:49.166Z,11.00
2017-10-23T19:25:16.581Z,11.00
2017-10-23T19:27:44.009Z,11.00
2017-10-23T19:30:12.182Z,11.00
2017-10-23T19:32:39.605Z,11.00
2017-10-23T19:35:07.022Z,11.10
2017-10-23T19:37:34.474Z,11.00
2017-10-23T19:40:01.883Z,11.00
2017-10-23T19:42:29.325Z,10.90
2017-10-23T19:44:56.721Z,10.90
2017-10-23T19:47:24.150Z,10.90
2017-10-23T19:49:51.575Z,11.00
2017-10-23T19:52:19.020Z,11.00
2017-10-23T19:54:46.442Z,10.90
2017-10-23T19:57:13.871Z,10.90
2017-10-23T19:59:41.290Z,11.00
2017-10-23T20:02:08.711Z,11.10
2017-10-23T20:04:36.156Z,11.00
2017-10-23T20:07:03.587Z,11.00
2017-10-23T20:09:31.025Z,11.00
2017-10-23T20:11:58.446Z,10.90
2017-10-23T20:14:25.868Z,10.80
2017-10-23T20:16:53.297Z,10.90
2017-10-23T20:19:20.733Z,11.00
2017-10-23T20:21:48.143Z,11.10
2017-10-23T20:24:15.545Z,11.10
2017-10-23T20:26:42.978Z,11.10
2017-10-23T20:29:10.398Z,11.10
2017-10-23T20:31:37.809Z,11.10
2017-10-23T20:34:05.222Z,11.10
2017-10-23T20:36:33.413Z,11.00
2017-10-23T20:39:01.439Z,11.00
2017-10-23T20:41:28.834Z,10.90
2017-10-23T20:43:57.009Z,10.80
2017-10-23T20:46:24.422Z,10.80
2017-10-23T20:48:51.830Z,10.80
2017-10-23T20:51:19.246Z,10.80
2017-10-23T20:53:46.671Z,10.80
2017-10-23T20:56:14.078Z,10.80
2017-10-23T20:58:42.257Z,10.80
2017-10-23T21:01:10.438Z,10.90
2017-10-23T21:03:37.862Z,10.90
2017-10-23T21:06:05.285Z,10.90
2017-10-23T21:08:32.701Z,10.90
2017-10-23T21:11:00.883Z,10.90
2017-10-23T21:13:28.299Z,10.90
2017-10-23T21:15:55.727Z,10.90
2017-10-23T21:18:23.151Z,10.90
2017-10-23T21:20:51.321Z,10.90
2017-10-23T21:23:19.497Z,10.90
2017-10-23T21:25:47.674Z,10.80
2017-10-23T21:28:15.111Z,10.80
2017-10-23T21:30:42.514Z,10.70
2017-10-23T21:33:09.921Z,10.70
2017-10-23T21:35:38.094Z,10.50
2017-10-23T21:38:06.273Z,10.40
2017-10-23T21:40:34.453Z,10.40
2017-10-23T21:43:02.633Z,10.30
2017-10-23T21:45:30.046Z,10.30
2017-10-23T21:48:09.491Z,10.30
2017-10-23T21:50:36.912Z,10.20
2017-10-23T21:53:04.326Z,10.10
2017-10-23T21:55:32.528Z,10.20
2017-10-23T21:57:59.947Z,10.20
2017-10-23T22:00:27.373Z,10.10
2017-10-23T22:02:54.788Z,10.10
2017-10-23T22:05:22.197Z,10.10
2017-10-23T22:07:49.639Z,10.00
2017-10-23T22:10:17.051Z,10.00
2017-10-23T22:12:45.236Z,9.80
2017-10-23T22:15:12.659Z,9.80
2017-10-23T22:17:40.064Z,9.80
2017-10-23T22:20:07.492Z,9.70
2017-10-23T22:22:34.921Z,9.70
2017-10-23T22:25:02.337Z,9.70
2017-10-23T22:27:29.738Z,9.70
2017-10-23T22:29:57.148Z,9.70
2017-10-23T22:32:24.558Z,9.70
2017-10-23T22:34:52.739Z,9.70
2017-10-23T22:37:20.150Z,9.70
2017-10-23T22:39:47.558Z,9.80
2017-10-23T22:42:14.965Z,9.70
2017-10-23T22:44:42.380Z,9.70
2017-10-23T22:47:09.782Z,9.70
2017-10-23T22:49:37.189Z,9.80
2017-10-23T22:52:04.602Z,9.80
2017-10-23T22:54:32.012Z,9.80
2017-10-23T22:56:59.415Z,9.70
2017-10-23T22:59:26.831Z,9.60
2017-10-23T23:01:54.241Z,9.50
2017-10-23T23:04:21.658Z,9.30
2017-10-23T23:06:49.075Z,9.20
2017-10-23T23:09:17.256Z,9.00
2017-10-23T23:11:45.426Z,9.00
2017-10-23T23:14:12.843Z,9.00
2017-10-23T23:16:40.252Z,8.90
2017-10-23T23:19:07.657Z,8.90
2017-10-23T23:21:35.067Z,8.80
2017-10-23T23:24:02.488Z,8.80
2017-10-23T23:26:29.887Z,8.80
2017-10-23T23:28:57.299Z,8.80
2017-10-23T23:31:24.707Z,8.70
2017-10-23T23:33:52.160Z,8.60
2017-10-23T23:36:19.558Z,8.70
2017-10-23T23:38:46.982Z,8.60
2017-10-23T23:41:14.395Z,8.50
2017-10-23T23:43:41.799Z,8.50
2017-10-23T23:46:09.214Z,8.40
2017-10-23T23:48:36.631Z,8.50
2017-10-23T23:51:04.042Z,8.60
2017-10-23T23:53:31.442Z,8.80
2017-10-23T23:55:58.858Z,8.70
2017-10-23T23:58:26.263Z,8.60
